createdAt,value
2019-01-25T00:01:00.798Z,82.67
2019-01-25T00:03:31.886Z,70.97
2019-01-25T00:06:01.641Z,79.53
2019-01-25T00:08:31.167Z,81.37
2019-01-25T00:11:02.271Z,82.20
2019-01-25T00:13:31.827Z,83.17
2019-01-25T00:16:01.305Z,86.00
2019-01-25T00:18:30.756Z,80.83
2019-01-25T00:21:00.297Z,78.63
2019-01-25T00:23:29.782Z,82.13
2019-01-25T00:25:59.252Z,78.03
2019-01-25T00:28:28.777Z,83.53
2019-01-25T00:30:59.017Z,84.53
2019-01-25T00:33:28.543Z,85.10
2019-01-25T00:35:58.383Z,79.67
2019-01-25T00:38:28.276Z,80.43
2019-01-25T00:40:58.301Z,81.33
2019-01-25T00:43:28.221Z,79.63
2019-01-25T00:45:57.725Z,84.43
2019-01-25T00:48:27.461Z,79.87
2019-01-25T00:50:56.980Z,80.67
2019-01-25T00:53:26.698Z,76.90
2019-01-25T00:55:56.187Z,82.07
2019-01-25T00:58:25.958Z,78.60
2019-01-25T01:00:55.973Z,84.03
2019-01-25T01:03:25.703Z,79.63
2019-01-25T01:05:55.172Z,86.00
2019-01-25T01:08:24.715Z,79.13
2019-01-25T01:10:54.208Z,76.80
2019-01-25T01:13:23.774Z,75.93
2019-01-25T01:15:53.246Z,84.97
2019-01-25T01:18:22.774Z,75.40
2019-01-25T01:20:52.267Z,80.10
2019-01-25T01:23:22.055Z,71.80
2019-01-25T01:25:51.515Z,79.27
2019-01-25T01:28:23.120Z,81.57
2019-01-25T01:30:52.637Z,80.73
2019-01-25T01:33:22.095Z,75.90
2019-01-25T01:35:51.571Z,81.50
2019-01-25T01:38:21.102Z,83.47
2019-01-25T01:40:50.651Z,79.93
2019-01-25T01:43:20.415Z,77.23
2019-01-25T01:45:50.275Z,76.97
2019-01-25T01:48:19.740Z,82.80
2019-01-25T01:50:49.220Z,73.80
2019-01-25T01:53:18.982Z,79.43
2019-01-25T01:55:48.461Z,80.93
2019-01-25T01:58:17.926Z,77.03
2019-01-25T02:00:47.434Z,86.10
2019-01-25T02:03:16.925Z,80.50
2019-01-25T02:05:46.395Z,79.10
2019-01-25T02:08:17.025Z,80.33
2019-01-25T02:10:46.595Z,79.93
2019-01-25T02:13:17.681Z,80.30
2019-01-25T02:15:47.154Z,78.40
2019-01-25T02:18:16.634Z,75.50
2019-01-25T02:20:46.103Z,76.40
2019-01-25T02:23:15.581Z,76.27
2019-01-25T02:25:45.075Z,78.03
2019-01-25T02:28:14.528Z,76.53
2019-01-25T02:30:44.005Z,81.27
2019-01-25T02:33:13.459Z,72.73
2019-01-25T02:35:42.961Z,74.47
2019-01-25T02:38:12.491Z,80.17
2019-01-25T02:40:41.971Z,77.97
2019-01-25T02:43:11.513Z,78.83
2019-01-25T02:45:41.009Z,75.73
2019-01-25T02:48:10.753Z,79.17
2019-01-25T02:50:40.223Z,77.23
2019-01-25T02:53:09.711Z,81.13
2019-01-25T02:55:39.187Z,87.13
2019-01-25T02:58:08.643Z,76.03
2019-01-25T03:00:38.118Z,81.60
2019-01-25T03:03:09.362Z,87.40
2019-01-25T03:05:38.826Z,82.00
2019-01-25T03:08:08.282Z,83.77
2019-01-25T03:10:46.700Z,78.67
2019-01-25T03:13:09.740Z,81.27
2019-01-25T03:15:39.657Z,81.80
2019-01-25T03:18:09.577Z,78.53
2019-01-25T03:20:39.387Z,81.83
2019-01-25T03:23:08.837Z,83.70
2019-01-25T03:25:38.310Z,83.77
2019-01-25T03:28:08.086Z,80.77
2019-01-25T03:30:37.665Z,84.07
2019-01-25T03:33:08.190Z,84.73
2019-01-25T03:35:37.681Z,87.47
2019-01-25T03:38:07.553Z,80.50
2019-01-25T03:40:37.013Z,85.00
2019-01-25T03:43:06.515Z,83.73
2019-01-25T03:45:35.977Z,92.20
2019-01-25T03:48:05.714Z,79.17
2019-01-25T03:50:35.175Z,77.87
2019-01-25T03:53:04.723Z,79.63
2019-01-25T03:55:34.194Z,86.53
2019-01-25T03:58:03.923Z,80.27
2019-01-25T04:00:33.385Z,82.30
2019-01-25T04:03:03.544Z,90.23
2019-01-25T04:05:33.055Z,90.50
2019-01-25T04:08:02.803Z,89.77
2019-01-25T04:10:32.343Z,90.00
2019-01-25T04:13:01.819Z,88.07
2019-01-25T04:15:32.637Z,82.33
2019-01-25T04:18:02.109Z,86.97
2019-01-25T04:20:31.823Z,88.63
2019-01-25T04:23:01.327Z,89.47
2019-01-25T04:25:30.770Z,95.60
2019-01-25T04:28:00.261Z,91.83
2019-01-25T04:30:32.836Z,94.10
2019-01-25T04:33:02.228Z,92.87
2019-01-25T04:35:31.742Z,89.77
2019-01-25T04:38:01.576Z,85.43
2019-01-25T04:40:31.050Z,95.50
2019-01-25T04:43:00.527Z,89.53
2019-01-25T04:45:30.054Z,88.97
2019-01-25T04:47:59.850Z,90.27
2019-01-25T04:50:29.320Z,90.77
2019-01-25T04:52:58.822Z,91.67
2019-01-25T04:55:32.682Z,94.17
2019-01-25T04:58:15.003Z,91.77
2019-01-25T05:00:44.511Z,88.70
2019-01-25T05:03:15.358Z,98.60
2019-01-25T05:05:44.877Z,89.90
2019-01-25T05:08:18.463Z,94.20
2019-01-25T05:10:47.992Z,103.43
2019-01-25T05:13:18.052Z,96.07
2019-01-25T05:15:47.512Z,93.50
2019-01-25T05:18:16.986Z,105.90
2019-01-25T05:20:47.374Z,99.00
2019-01-25T05:23:16.896Z,102.13
2019-01-25T05:25:46.373Z,99.40
2019-01-25T05:28:17.875Z,109.47
2019-01-25T05:30:56.403Z,105.83
2019-01-25T05:33:25.880Z,103.73
2019-01-25T05:35:55.353Z,99.93
2019-01-25T05:38:24.903Z,101.53
2019-01-25T05:40:54.619Z,96.93
2019-01-25T05:43:24.119Z,98.87
2019-01-25T05:45:53.621Z,104.83
2019-01-25T05:48:26.453Z,104.33
2019-01-25T05:50:59.105Z,102.63
2019-01-25T05:53:29.145Z,100.90
2019-01-25T05:55:58.937Z,104.77
2019-01-25T05:58:28.519Z,103.70
2019-01-25T06:00:58.306Z,119.00
2019-01-25T06:03:27.787Z,113.33
2019-01-25T06:05:59.538Z,106.77
2019-01-25T06:08:29.777Z,97.73
2019-01-25T06:11:01.865Z,94.30
2019-01-25T06:13:31.329Z,93.30
2019-01-25T06:16:01.124Z,89.17
2019-01-25T06:18:30.676Z,90.43
2019-01-25T06:21:00.208Z,95.37
2019-01-25T06:23:29.675Z,98.50
2019-01-25T06:25:59.806Z,98.87
2019-01-25T06:28:29.359Z,100.47
2019-01-25T06:30:59.019Z,101.53
2019-01-25T06:33:28.845Z,104.27
2019-01-25T06:35:58.314Z,104.67
2019-01-25T06:38:27.829Z,100.47
2019-01-25T06:40:57.611Z,102.40
2019-01-25T06:43:27.087Z,97.07
2019-01-25T06:45:56.555Z,107.60
2019-01-25T06:48:26.097Z,100.87
2019-01-25T06:50:55.559Z,98.53
2019-01-25T06:53:25.709Z,108.10
2019-01-25T06:55:55.169Z,120.10
2019-01-25T06:58:26.605Z,109.07
2019-01-25T07:01:00.404Z,108.70
2019-01-25T07:03:29.940Z,107.60
2019-01-25T07:05:59.406Z,115.27
2019-01-25T07:08:28.890Z,109.10
2019-01-25T07:10:58.745Z,107.93
2019-01-25T07:13:28.227Z,109.33
2019-01-25T07:15:57.699Z,105.43
2019-01-25T07:18:27.178Z,107.33
2019-01-25T07:20:56.968Z,102.03
2019-01-25T07:23:26.465Z,104.87
2019-01-25T07:25:55.945Z,107.60
2019-01-25T07:28:25.670Z,113.33
2019-01-25T07:30:55.221Z,113.30
2019-01-25T07:33:24.701Z,112.00
2019-01-25T07:35:54.228Z,108.23
2019-01-25T07:38:24.025Z,111.33
2019-01-25T07:40:53.513Z,105.20
2019-01-25T07:43:23.002Z,107.87
2019-01-25T07:45:52.737Z,106.67
2019-01-25T07:48:22.226Z,108.27
2019-01-25T07:50:51.983Z,108.80
2019-01-25T07:53:22.282Z,109.07
2019-01-25T07:55:52.220Z,104.93
2019-01-25T07:58:21.723Z,105.97
2019-01-25T08:00:51.313Z,105.40
2019-01-25T08:03:21.129Z,105.93
2019-01-25T08:05:50.606Z,110.07
2019-01-25T08:08:20.443Z,114.60
2019-01-25T08:10:50.001Z,108.77
2019-01-25T08:13:19.613Z,114.40
2019-01-25T08:15:49.097Z,110.77
2019-01-25T08:18:18.548Z,108.10
2019-01-25T08:20:48.015Z,110.10
2019-01-25T08:23:17.822Z,112.27
2019-01-25T08:25:47.275Z,107.77
2019-01-25T08:28:16.780Z,108.87
2019-01-25T08:30:46.351Z,109.70
2019-01-25T08:33:15.878Z,108.57
2019-01-25T08:35:45.334Z,108.30
2019-01-25T08:38:14.865Z,104.50
2019-01-25T08:40:44.350Z,100.77
2019-01-25T08:43:13.830Z,107.53
2019-01-25T08:45:43.292Z,106.20
2019-01-25T08:48:12.776Z,102.03
2019-01-25T08:50:42.244Z,100.37
2019-01-25T08:53:11.799Z,103.53
2019-01-25T08:55:41.621Z,101.43
2019-01-25T08:58:11.385Z,97.87
2019-01-25T09:00:42.424Z,99.83
2019-01-25T09:03:12.246Z,102.97
2019-01-25T09:05:42.054Z,101.17
2019-01-25T09:08:11.795Z,95.13
2019-01-25T09:10:41.249Z,98.27
2019-01-25T09:13:10.726Z,93.87
2019-01-25T09:15:40.434Z,93.80
2019-01-25T09:18:09.888Z,96.00
2019-01-25T09:20:39.410Z,97.03
2019-01-25T09:23:08.869Z,91.40
2019-01-25T09:25:38.366Z,91.87
2019-01-25T09:28:08.139Z,92.43
2019-01-25T09:30:37.645Z,91.03
2019-01-25T09:33:07.543Z,78.47
2019-01-25T09:35:37.037Z,80.57
2019-01-25T09:38:06.750Z,79.00
2019-01-25T09:40:36.569Z,86.07
2019-01-25T09:43:06.029Z,76.57
2019-01-25T09:45:35.496Z,76.23
2019-01-25T09:48:05.027Z,88.80
2019-01-25T09:50:34.803Z,84.87
2019-01-25T09:53:04.283Z,82.50
2019-01-25T09:55:34.023Z,89.37
2019-01-25T09:58:12.303Z,77.30
2019-01-25T10:00:56.707Z,73.13
2019-01-25T10:03:26.236Z,81.17
2019-01-25T10:05:55.738Z,81.30
2019-01-25T10:08:25.557Z,84.53
2019-01-25T10:10:55.043Z,80.57
2019-01-25T10:13:24.510Z,78.30
2019-01-25T10:15:54.015Z,71.53
2019-01-25T10:18:24.980Z,75.40
2019-01-25T10:20:54.974Z,71.50
2019-01-25T10:23:24.505Z,67.23
2019-01-25T10:25:53.971Z,65.53
2019-01-25T10:28:23.447Z,66.53
2019-01-25T10:30:52.974Z,61.50
2019-01-25T10:33:22.477Z,65.73
2019-01-25T10:35:51.953Z,64.70
2019-01-25T10:38:21.406Z,57.67
2019-01-25T10:40:50.876Z,62.97
2019-01-25T10:43:20.337Z,60.57
2019-01-25T10:45:49.807Z,59.60
2019-01-25T10:48:19.265Z,61.93
2019-01-25T10:50:48.723Z,57.77
2019-01-25T10:53:18.184Z,64.13
2019-01-25T10:55:47.957Z,63.00
2019-01-25T10:58:17.426Z,64.30
2019-01-25T11:00:46.958Z,65.30
2019-01-25T11:03:16.686Z,62.80
2019-01-25T11:05:46.166Z,65.10
2019-01-25T11:08:15.610Z,60.83
2019-01-25T11:10:45.115Z,59.73
2019-01-25T11:13:14.652Z,58.73
2019-01-25T11:15:44.129Z,62.97
2019-01-25T11:18:13.586Z,63.00
2019-01-25T11:20:43.074Z,64.43
2019-01-25T11:23:12.561Z,58.97
2019-01-25T11:25:42.984Z,60.77
2019-01-25T11:28:12.460Z,58.80
2019-01-25T11:30:41.933Z,63.17
2019-01-25T11:33:11.787Z,56.97
2019-01-25T11:35:41.277Z,56.23
2019-01-25T11:38:10.732Z,60.07
2019-01-25T11:40:42.537Z,55.57
2019-01-25T11:43:11.996Z,57.57
2019-01-25T11:45:41.476Z,56.93
2019-01-25T11:48:13.156Z,57.67
2019-01-25T11:50:42.618Z,59.80
2019-01-25T11:53:12.385Z,57.77
2019-01-25T11:55:41.880Z,59.50
2019-01-25T11:58:11.758Z,57.33
2019-01-25T12:00:42.888Z,57.33
2019-01-25T12:03:13.732Z,53.27
2019-01-25T12:05:43.359Z,54.93
2019-01-25T12:08:12.900Z,48.30
2019-01-25T12:10:42.714Z,52.40
2019-01-25T12:13:16.312Z,53.57
2019-01-25T12:15:43.562Z,45.83
2019-01-25T12:18:13.102Z,46.80
2019-01-25T12:20:42.584Z,49.87
2019-01-25T12:23:12.205Z,49.93
2019-01-25T12:25:41.700Z,56.23
2019-01-25T12:28:11.168Z,53.77
2019-01-25T12:30:40.780Z,54.47
2019-01-25T12:33:10.292Z,58.00
2019-01-25T12:35:40.803Z,58.27
2019-01-25T12:38:10.273Z,59.37
2019-01-25T12:40:42.194Z,59.20
2019-01-25T12:43:11.926Z,55.80
2019-01-25T12:45:41.638Z,60.17
2019-01-25T12:48:11.186Z,61.47
2019-01-25T12:50:52.778Z,60.67
2019-01-25T12:53:22.512Z,64.03
2019-01-25T12:55:51.966Z,66.73
2019-01-25T12:58:21.426Z,62.50
2019-01-25T13:00:51.696Z,55.00
2019-01-25T13:03:21.138Z,56.17
2019-01-25T13:05:50.962Z,67.63
2019-01-25T13:08:20.587Z,67.93
2019-01-25T13:10:50.063Z,60.60
2019-01-25T13:13:19.520Z,57.80
2019-01-25T13:15:49.369Z,56.30
2019-01-25T13:18:18.855Z,54.20
2019-01-25T13:20:48.310Z,56.90
2019-01-25T13:23:17.801Z,61.47
2019-01-25T13:25:47.404Z,67.57
2019-01-25T13:28:16.828Z,66.30
2019-01-25T13:30:46.325Z,66.53
2019-01-25T13:33:15.795Z,62.77
2019-01-25T13:35:45.276Z,65.57
2019-01-25T13:38:14.773Z,66.83
2019-01-25T13:40:44.345Z,68.77
2019-01-25T13:43:13.807Z,73.27
2019-01-25T13:45:43.300Z,69.57
2019-01-25T13:48:12.830Z,70.10
2019-01-25T13:50:42.308Z,59.60
2019-01-25T13:53:11.768Z,64.87
2019-01-25T13:55:42.749Z,68.77
2019-01-25T13:58:12.229Z,68.87
2019-01-25T14:00:41.769Z,69.00
2019-01-25T14:03:11.240Z,67.07
2019-01-25T14:05:40.732Z,64.57
2019-01-25T14:08:10.190Z,68.63
2019-01-25T14:10:39.942Z,73.07
2019-01-25T14:13:09.412Z,63.37
2019-01-25T14:15:38.967Z,66.87
2019-01-25T14:18:08.431Z,70.50
2019-01-25T14:20:37.912Z,70.87
2019-01-25T14:23:07.420Z,70.80
2019-01-25T14:25:36.904Z,72.83
2019-01-25T14:28:06.409Z,67.47
2019-01-25T14:30:40.685Z,75.93
2019-01-25T14:33:10.146Z,75.97
2019-01-25T14:35:39.606Z,73.90
2019-01-25T14:38:09.334Z,78.93
2019-01-25T14:40:39.230Z,77.27
2019-01-25T14:43:08.896Z,69.73
2019-01-25T14:45:38.349Z,71.10
2019-01-25T14:48:08.282Z,77.33
2019-01-25T14:50:37.752Z,74.23
2019-01-25T14:53:09.255Z,76.90
2019-01-25T14:55:38.716Z,83.07
2019-01-25T14:58:08.263Z,82.60
2019-01-25T15:00:37.742Z,86.60
2019-01-25T15:03:07.237Z,88.17
2019-01-25T15:05:36.685Z,83.30
2019-01-25T15:08:06.191Z,88.30
2019-01-25T15:10:35.685Z,88.10
2019-01-25T15:13:06.201Z,93.10
2019-01-25T15:15:35.659Z,97.80
2019-01-25T15:18:05.372Z,100.87
2019-01-25T15:20:34.860Z,102.03
2019-01-25T15:23:04.336Z,93.63
2019-01-25T15:25:34.121Z,97.37
2019-01-25T15:28:03.667Z,95.30
2019-01-25T15:30:33.211Z,98.27
2019-01-25T15:33:02.675Z,99.63
2019-01-25T15:35:32.176Z,104.90
2019-01-25T15:38:01.652Z,104.00
2019-01-25T15:40:32.070Z,100.60
2019-01-25T15:43:01.555Z,97.67
2019-01-25T15:45:31.165Z,106.63
2019-01-25T15:48:00.645Z,107.73
2019-01-25T15:50:31.371Z,100.33
2019-01-25T15:53:00.859Z,108.83
2019-01-25T15:55:30.392Z,104.33
2019-01-25T15:57:59.935Z,103.63
2019-01-25T16:00:29.865Z,92.47
2019-01-25T16:02:59.338Z,88.57
2019-01-25T16:05:28.829Z,89.37
2019-01-25T16:07:58.290Z,92.97
2019-01-25T16:10:27.784Z,90.80
2019-01-25T16:12:57.266Z,94.00
2019-01-25T16:15:28.372Z,93.87
2019-01-25T16:17:57.870Z,94.53
2019-01-25T16:20:27.323Z,101.80
2019-01-25T16:22:56.960Z,95.10
2019-01-25T16:25:28.932Z,99.33
2019-01-25T16:27:58.408Z,103.25
2019-01-25T16:30:33.035Z,100.67
2019-01-25T16:33:02.932Z,92.97
2019-01-25T16:35:32.390Z,101.70
2019-01-25T16:38:01.866Z,99.80
2019-01-25T16:40:31.603Z,100.30
2019-01-25T16:43:01.078Z,100.30
2019-01-25T16:45:33.271Z,96.87
2019-01-25T16:48:02.860Z,108.87
2019-01-25T16:50:32.636Z,108.10
2019-01-25T16:53:02.123Z,102.07
2019-01-25T16:55:31.618Z,115.22
2019-01-25T16:58:01.183Z,102.43
2019-01-25T17:00:35.793Z,102.47
2019-01-25T17:03:05.547Z,102.73
2019-01-25T17:05:35.315Z,102.80
2019-01-25T17:08:05.659Z,103.87
2019-01-25T17:10:35.487Z,100.33
2019-01-25T17:13:04.980Z,103.47
2019-01-25T17:15:34.507Z,106.43
2019-01-25T17:18:04.664Z,94.73
2019-01-25T17:20:34.312Z,100.93
2019-01-25T17:23:04.877Z,104.80
2019-01-25T17:25:34.386Z,107.47
2019-01-25T17:28:04.436Z,116.00
2019-01-25T17:30:36.316Z,106.23
2019-01-25T17:33:06.443Z,105.73
2019-01-25T17:35:35.849Z,114.73
2019-01-25T17:38:05.650Z,105.07
2019-01-25T17:40:46.462Z,111.50
2019-01-25T17:43:12.175Z,126.43
2019-01-25T17:45:41.998Z,114.53
2019-01-25T17:48:11.749Z,124.20
2019-01-25T17:50:41.216Z,119.17
2019-01-25T17:53:10.692Z,115.07
2019-01-25T17:55:40.156Z,106.93
2019-01-25T17:58:09.629Z,100.73
2019-01-25T18:00:40.807Z,83.57
2019-01-25T18:03:10.278Z,80.30
2019-01-25T18:05:40.048Z,79.73
2019-01-25T18:08:09.511Z,65.87
2019-01-25T18:10:39.265Z,69.93
2019-01-25T18:13:10.022Z,68.43
2019-01-25T18:15:39.813Z,66.57
2019-01-25T18:18:09.755Z,65.93
2019-01-25T18:20:39.294Z,68.60
2019-01-25T18:23:08.789Z,66.37
2019-01-25T18:25:41.184Z,69.37
2019-01-25T18:28:14.172Z,71.23
2019-01-25T18:30:52.832Z,64.17
2019-01-25T18:33:22.306Z,62.43
2019-01-25T18:35:51.880Z,62.83
2019-01-25T18:38:21.503Z,60.83
2019-01-25T18:40:50.957Z,56.83
2019-01-25T18:43:20.764Z,57.50
2019-01-25T18:45:50.588Z,56.50
2019-01-25T18:48:20.198Z,58.70
2019-01-25T18:50:49.653Z,57.67
2019-01-25T18:53:19.192Z,52.13
2019-01-25T18:55:48.929Z,55.77
2019-01-25T18:58:18.625Z,56.57
2019-01-25T19:00:48.100Z,56.93
2019-01-25T19:03:17.599Z,52.00
2019-01-25T19:05:47.543Z,52.27
2019-01-25T19:08:17.905Z,52.43
2019-01-25T19:10:47.372Z,54.93
2019-01-25T19:13:16.856Z,59.70
2019-01-25T19:15:46.326Z,58.00
2019-01-25T19:18:15.790Z,52.73
2019-01-25T19:20:45.260Z,56.00
2019-01-25T19:23:14.734Z,55.23
2019-01-25T19:25:44.272Z,52.67
2019-01-25T19:28:13.741Z,57.23
2019-01-25T19:30:45.398Z,56.77
2019-01-25T19:33:14.833Z,57.40
2019-01-25T19:35:44.289Z,58.63
2019-01-25T19:38:14.234Z,61.17
2019-01-25T19:40:43.660Z,59.17
2019-01-25T19:43:13.147Z,56.93
2019-01-25T19:45:42.626Z,59.73
2019-01-25T19:48:12.086Z,56.87
2019-01-25T19:50:41.545Z,58.97
2019-01-25T19:53:11.343Z,58.40
2019-01-25T19:55:40.814Z,59.80
2019-01-25T19:58:13.386Z,58.07
2019-01-25T20:00:45.585Z,58.23
2019-01-25T20:03:15.212Z,65.30
2019-01-25T20:05:44.681Z,58.23
2019-01-25T20:08:14.138Z,62.20
2019-01-25T20:10:43.613Z,59.30
2019-01-25T20:13:13.428Z,62.43
2019-01-25T20:15:43.246Z,61.07
2019-01-25T20:18:12.699Z,65.93
2019-01-25T20:20:42.323Z,57.10
2019-01-25T20:23:12.087Z,56.23
2019-01-25T20:25:41.550Z,65.50
2019-01-25T20:28:11.991Z,64.60
2019-01-25T20:30:41.620Z,65.37
2019-01-25T20:33:11.150Z,64.57
2019-01-25T20:35:42.743Z,63.53
2019-01-25T20:38:12.523Z,65.53
2019-01-25T20:40:41.992Z,62.10
2019-01-25T20:43:13.004Z,60.43
2019-01-25T20:45:43.188Z,56.23
2019-01-25T20:48:12.668Z,60.50
2019-01-25T20:50:42.173Z,60.80
2019-01-25T20:53:13.594Z,57.10
2019-01-25T20:55:43.672Z,57.67
2019-01-25T20:58:13.141Z,61.03
2019-01-25T21:00:42.821Z,56.27
2019-01-25T21:03:14.353Z,58.90
2019-01-25T21:05:43.845Z,61.70
2019-01-25T21:08:13.334Z,57.40
2019-01-25T21:10:42.858Z,58.67
2019-01-25T21:13:12.343Z,57.97
2019-01-25T21:15:41.845Z,55.63
2019-01-25T21:18:11.855Z,56.23
2019-01-25T21:20:43.571Z,55.93
2019-01-25T21:23:13.339Z,54.33
2019-01-25T21:25:42.824Z,54.20
2019-01-25T21:28:12.667Z,54.90
2019-01-25T21:30:42.144Z,57.13
2019-01-25T21:33:11.613Z,56.97
2019-01-25T21:35:41.413Z,57.37
2019-01-25T21:38:11.020Z,56.43
2019-01-25T21:40:40.513Z,58.10
2019-01-25T21:43:09.993Z,54.30
2019-01-25T21:45:43.227Z,54.70
2019-01-25T21:48:11.587Z,51.87
2019-01-25T21:50:43.114Z,55.73
2019-01-25T21:53:12.593Z,57.67
2019-01-25T21:55:42.332Z,53.10
2019-01-25T21:58:11.863Z,54.77
2019-01-25T22:00:41.659Z,55.97
2019-01-25T22:03:11.109Z,57.90
2019-01-25T22:05:40.872Z,58.17
2019-01-25T22:08:11.761Z,49.07
2019-01-25T22:10:44.029Z,49.53
2019-01-25T22:13:13.501Z,54.23
2019-01-25T22:15:50.518Z,55.80
2019-01-25T22:18:14.207Z,55.07
2019-01-25T22:20:43.943Z,49.70
2019-01-25T22:23:13.452Z,51.43
2019-01-25T22:25:42.937Z,51.83
2019-01-25T22:28:12.853Z,51.97
2019-01-25T22:30:42.702Z,47.83
2019-01-25T22:33:12.170Z,51.33
2019-01-25T22:35:41.663Z,48.60
2019-01-25T22:38:11.144Z,46.03
2019-01-25T22:40:40.621Z,44.57
2019-01-25T22:43:10.089Z,55.70
2019-01-25T22:45:39.830Z,51.93
2019-01-25T22:48:09.290Z,48.80
2019-01-25T22:50:39.118Z,51.30
2019-01-25T22:53:08.575Z,51.83
2019-01-25T22:55:38.132Z,52.23
2019-01-25T22:58:07.602Z,56.03
2019-01-25T23:00:47.857Z,49.57
2019-01-25T23:03:23.545Z,52.13
2019-01-25T23:06:27.928Z,54.67
2019-01-25T23:09:00.729Z,48.83
2019-01-25T23:11:30.565Z,51.83
2019-01-25T23:14:01.101Z,47.63
2019-01-25T23:16:30.593Z,48.87
2019-01-25T23:19:00.406Z,48.93
2019-01-25T23:21:29.887Z,47.43
2019-01-25T23:23:59.648Z,54.63
2019-01-25T23:26:29.127Z,50.97
2019-01-25T23:28:58.970Z,49.83
2019-01-25T23:31:28.502Z,47.87
2019-01-25T23:33:58.051Z,46.77
2019-01-25T23:36:27.868Z,47.87
2019-01-25T23:38:57.335Z,52.43
2019-01-25T23:41:26.817Z,56.13
2019-01-25T23:43:56.280Z,50.43
2019-01-25T23:46:25.762Z,48.53
2019-01-25T23:48:55.234Z,48.17
2019-01-25T23:51:24.726Z,50.53
2019-01-25T23:53:54.447Z,55.17
2019-01-25T23:56:24.248Z,52.50
2019-01-25T23:58:53.718Z,50.40
